createdAt,value
2024-02-19T00:09:01.869Z,7.73
2024-02-19T00:24:02.591Z,7.72
2024-02-19T00:39:03.481Z,7.77
2024-02-19T00:54:03.949Z,7.79
2024-02-19T01:09:04.649Z,7.87
2024-02-19T01:24:05.385Z,7.92
2024-02-19T01:39:05.826Z,7.92
2024-02-19T01:54:06.760Z,7.89
2024-02-19T02:09:07.404Z,7.85
2024-02-19T02:24:07.917Z,7.74
2024-02-19T02:39:08.628Z,7.68
2024-02-19T02:54:09.355Z,7.68
2024-02-19T03:09:09.860Z,7.68
2024-02-19T03:24:10.898Z,7.68
2024-02-19T03:39:11.557Z,7.69
2024-02-19T03:54:14.172Z,7.76
2024-02-19T04:09:12.465Z,7.83
2024-02-19T04:24:13.331Z,7.86
2024-02-19T04:39:13.716Z,7.89
2024-02-19T04:54:14.643Z,7.95
2024-02-19T05:09:15.309Z,7.98
2024-02-19T05:24:15.788Z,8.06
2024-02-19T05:39:16.472Z,8.09
2024-02-19T05:54:17.238Z,8.15
2024-02-19T06:09:17.620Z,8.05
2024-02-19T06:24:18.521Z,7.93
2024-02-19T06:39:19.203Z,7.95
2024-02-19T06:54:19.688Z,7.94
2024-02-19T07:09:20.364Z,7.98
2024-02-19T07:24:21.114Z,7.98
2024-02-19T07:39:21.739Z,8.02
2024-02-19T07:54:21.948Z,8.27
2024-02-19T08:09:22.412Z,8.50
2024-02-19T08:24:23.120Z,8.77
2024-02-19T08:39:23.844Z,8.78
2024-02-19T08:54:24.493Z,8.81
2024-02-19T09:09:24.871Z,8.75
2024-02-19T09:24:25.340Z,8.90
2024-02-19T09:39:26.051Z,10.11
2024-02-19T09:54:26.737Z,9.88
2024-02-19T10:09:27.103Z,10.30
2024-02-19T10:24:27.769Z,10.16
2024-02-19T10:39:28.559Z,10.02
2024-02-19T10:54:30.990Z,9.80
2024-02-19T11:09:30.619Z,9.93
2024-02-19T11:24:30.034Z,9.59
2024-02-19T11:39:30.707Z,9.71
2024-02-19T11:54:31.419Z,9.81
2024-02-19T12:09:31.871Z,9.75
2024-02-19T12:24:32.626Z,9.73
2024-02-19T12:39:33.337Z,10.03
2024-02-19T12:54:33.759Z,9.38
2024-02-19T13:09:34.637Z,9.02
2024-02-19T13:24:35.346Z,9.27
2024-02-19T13:39:35.843Z,9.16
2024-02-19T13:54:36.524Z,9.67
2024-02-19T14:09:37.228Z,9.28
2024-02-19T14:24:37.682Z,9.07
2024-02-19T14:39:38.535Z,9.23
2024-02-19T14:54:39.287Z,9.03
2024-02-19T15:09:39.731Z,8.91
2024-02-19T15:24:40.560Z,8.81
2024-02-19T15:39:41.232Z,8.70
2024-02-19T15:54:41.682Z,8.77
2024-02-19T16:09:42.554Z,8.64
2024-02-19T16:24:43.349Z,8.53
2024-02-19T16:39:43.794Z,8.48
2024-02-19T16:54:44.895Z,8.58
2024-02-19T17:09:45.184Z,8.53
2024-02-19T17:24:45.619Z,8.56
2024-02-19T17:39:46.344Z,8.44
2024-02-19T17:54:47.115Z,8.50
2024-02-19T18:09:47.576Z,8.57
2024-02-19T18:24:48.434Z,8.51
2024-02-19T18:39:49.233Z,8.52
2024-02-19T18:54:49.912Z,8.44
2024-02-19T19:09:50.114Z,8.32
2024-02-19T19:24:50.542Z,8.12
2024-02-19T19:39:51.250Z,8.23
2024-02-19T19:54:53.479Z,8.23
2024-02-19T20:09:52.598Z,8.25
2024-02-19T20:24:53.515Z,8.27
2024-02-19T20:39:54.234Z,8.21
2024-02-19T20:54:54.518Z,8.23
2024-02-19T21:09:54.921Z,7.93
2024-02-19T21:24:55.664Z,7.94
2024-02-19T21:39:56.398Z,8.07
2024-02-19T21:54:57.096Z,8.18
2024-02-19T22:09:57.305Z,8.24
2024-02-19T22:24:57.787Z,8.23
2024-02-19T22:39:58.595Z,8.23
2024-02-19T22:54:59.337Z,8.16
2024-02-19T23:10:00.022Z,7.78
2024-02-19T23:25:00.371Z,7.47
2024-02-19T23:40:01.100Z,7.42
2024-02-19T23:55:01.689Z,7.41
